sensor_id;sensor_type;location;lat;lon;timestamp;P1;durP1;ratioP1;P2;durP2;ratioP2
78960;SDS011;68362;45.970;12.646;2023-04-24T00:00:39;10.35;;;7.75;;
78960;SDS011;68362;45.970;12.646;2023-04-24T00:01:58;11.18;;;7.28;;
78960;SDS011;68362;45.970;12.646;2023-04-24T00:03:00;11.85;;;7.32;;
78960;SDS011;68362;45.970;12.646;2023-04-24T00:04:02;11.70;;;7.13;;
78960;SDS011;68362;45.970;12.646;2023-04-24T00:05:06;10.30;;;8.55;;
78960;SDS011;68362;45.970;12.646;2023-04-24T00:06:09;8.63;;;7.20;;
78960;SDS011;68362;45.970;12.646;2023-04-24T00:07:11;9.02;;;7.05;;
78960;SDS011;68362;45.970;12.646;2023-04-24T00:08:14;10.27;;;7.45;;
78960;SDS011;68362;45.970;12.646;2023-04-24T00:09:17;10.43;;;7.43;;
78960;SDS011;68362;45.970;12.646;2023-04-24T00:10:19;9.18;;;6.43;;
78960;SDS011;68362;45.970;12.646;2023-04-24T00:11:21;9.98;;;6.93;;
78960;SDS011;68362;45.970;12.646;2023-04-24T00:12:23;10.82;;;7.90;;
78960;SDS011;68362;45.970;12.646;2023-04-24T00:13:26;10.23;;;7.43;;
78960;SDS011;68362;45.970;12.646;2023-04-24T00:14:30;11.57;;;7.63;;
78960;SDS011;68362;45.970;12.646;2023-04-24T00:15:33;9.38;;;6.68;;
78960;SDS011;68362;45.970;12.646;2023-04-24T00:16:34;9.38;;;7.20;;
78960;SDS011;68362;45.970;12.646;2023-04-24T00:17:37;22.55;;;7.40;;
78960;SDS011;68362;45.970;12.646;2023-04-24T00:18:39;10.60;;;7.20;;
78960;SDS011;68362;45.970;12.646;2023-04-24T00:19:41;11.10;;;6.60;;
78960;SDS011;68362;45.970;12.646;2023-04-24T00:20:43;9.85;;;7.50;;
78960;SDS011;68362;45.970;12.646;2023-04-24T00:21:46;10.63;;;7.22;;
78960;SDS011;68362;45.970;12.646;2023-04-24T00:22:51;8.50;;;6.63;;
78960;SDS011;68362;45.970;12.646;2023-04-24T00:23:53;8.68;;;6.63;;
78960;SDS011;68362;45.970;12.646;2023-04-24T00:24:55;9.18;;;6.90;;
78960;SDS011;68362;45.970;12.646;2023-04-24T00:25:57;10.48;;;6.95;;
78960;SDS011;68362;45.970;12.646;2023-04-24T00:26:59;8.88;;;6.88;;
78960;SDS011;68362;45.970;12.646;2023-04-24T00:29:04;10.63;;;7.22;;
78960;SDS011;68362;45.970;12.646;2023-04-24T00:30:06;10.30;;;6.53;;
78960;SDS011;68362;45.970;12.646;2023-04-24T00:31:09;9.23;;;6.78;;
78960;SDS011;68362;45.970;12.646;2023-04-24T00:32:11;10.77;;;7.68;;
78960;SDS011;68362;45.970;12.646;2023-04-24T00:33:13;10.02;;;7.03;;
78960;SDS011;68362;45.970;12.646;2023-04-24T00:34:15;10.07;;;6.95;;
78960;SDS011;68362;45.970;12.646;2023-04-24T00:35:17;10.27;;;7.10;;
78960;SDS011;68362;45.970;12.646;2023-04-24T00:36:21;11.20;;;7.72;;
78960;SDS011;68362;45.970;12.646;2023-04-24T00:37:23;9.70;;;7.10;;
78960;SDS011;68362;45.970;12.646;2023-04-24T00:38:25;10.57;;;7.55;;
78960;SDS011;68362;45.970;12.646;2023-04-24T00:39:27;9.60;;;7.57;;
78960;SDS011;68362;45.970;12.646;2023-04-24T00:40:29;9.57;;;7.43;;
78960;SDS011;68362;45.970;12.646;2023-04-24T00:41:31;10.57;;;7.80;;
78960;SDS011;68362;45.970;12.646;2023-04-24T00:42:34;10.75;;;7.35;;
78960;SDS011;68362;45.970;12.646;2023-04-24T00:43:36;9.02;;;7.40;;
78960;SDS011;68362;45.970;12.646;2023-04-24T00:44:38;8.25;;;6.95;;
78960;SDS011;68362;45.970;12.646;2023-04-24T00:45:40;9.15;;;7.68;;
78960;SDS011;68362;45.970;12.646;2023-04-24T00:46:43;11.38;;;7.70;;
78960;SDS011;68362;45.970;12.646;2023-04-24T00:47:45;9.07;;;7.05;;
78960;SDS011;68362;45.970;12.646;2023-04-24T00:49:50;8.85;;;6.57;;
78960;SDS011;68362;45.970;12.646;2023-04-24T00:50:52;10.20;;;7.63;;
78960;SDS011;68362;45.970;12.646;2023-04-24T00:51:54;9.95;;;6.93;;
78960;SDS011;68362;45.970;12.646;2023-04-24T00:52:56;8.52;;;6.55;;
78960;SDS011;68362;45.970;12.646;2023-04-24T00:55:01;9.02;;;6.65;;
78960;SDS011;68362;45.970;12.646;2023-04-24T00:56:03;9.40;;;6.85;;
78960;SDS011;68362;45.970;12.646;2023-04-24T00:57:06;8.18;;;6.57;;
78960;SDS011;68362;45.970;12.646;2023-04-24T00:58:08;7.72;;;6.22;;
78960;SDS011;68362;45.970;12.646;2023-04-24T00:59:15;7.43;;;5.65;;
78960;SDS011;68362;45.970;12.646;2023-04-24T01:00:19;7.65;;;6.43;;
78960;SDS011;68362;45.970;12.646;2023-04-24T01:01:21;7.28;;;5.97;;
78960;SDS011;68362;45.970;12.646;2023-04-24T01:03:28;8.07;;;5.70;;
78960;SDS011;68362;45.970;12.646;2023-04-24T01:04:34;7.75;;;6.22;;
78960;SDS011;68362;45.970;12.646;2023-04-24T01:05:36;7.60;;;5.45;;
78960;SDS011;68362;45.970;12.646;2023-04-24T01:06:39;6.90;;;4.90;;
78960;SDS011;68362;45.970;12.646;2023-04-24T01:07:43;8.43;;;5.88;;
78960;SDS011;68362;45.970;12.646;2023-04-24T01:08:47;8.13;;;5.80;;
78960;SDS011;68362;45.970;12.646;2023-04-24T01:09:49;7.82;;;5.43;;
78960;SDS011;68362;45.970;12.646;2023-04-24T01:10:53;6.88;;;5.28;;
78960;SDS011;68362;45.970;12.646;2023-04-24T01:11:57;7.45;;;5.65;;
78960;SDS011;68362;45.970;12.646;2023-04-24T01:12:59;6.82;;;5.28;;
78960;SDS011;68362;45.970;12.646;2023-04-24T01:14:01;6.85;;;5.25;;
78960;SDS011;68362;45.970;12.646;2023-04-24T01:15:03;7.10;;;5.35;;
78960;SDS011;68362;45.970;12.646;2023-04-24T01:16:08;7.80;;;5.13;;
78960;SDS011;68362;45.970;12.646;2023-04-24T01:17:10;7.38;;;5.30;;
78960;SDS011;68362;45.970;12.646;2023-04-24T01:18:13;6.57;;;4.70;;
78960;SDS011;68362;45.970;12.646;2023-04-24T01:19:15;6.93;;;5.15;;
78960;SDS011;68362;45.970;12.646;2023-04-24T01:20:20;8.27;;;5.40;;
78960;SDS011;68362;45.970;12.646;2023-04-24T01:21:22;7.32;;;4.88;;
78960;SDS011;68362;45.970;12.646;2023-04-24T01:22:25;6.57;;;5.35;;
78960;SDS011;68362;45.970;12.646;2023-04-24T01:23:27;5.70;;;4.65;;
78960;SDS011;68362;45.970;12.646;2023-04-24T01:24:30;9.40;;;5.32;;
78960;SDS011;68362;45.970;12.646;2023-04-24T01:25:32;6.07;;;4.88;;
78960;SDS011;68362;45.970;12.646;2023-04-24T01:26:34;6.80;;;5.43;;
78960;SDS011;68362;45.970;12.646;2023-04-24T01:27:36;6.13;;;4.78;;
78960;SDS011;68362;45.970;12.646;2023-04-24T01:28:39;7.60;;;4.68;;
78960;SDS011;68362;45.970;12.646;2023-04-24T01:29:41;6.03;;;4.65;;
78960;SDS011;68362;45.970;12.646;2023-04-24T01:30:43;8.25;;;4.25;;
78960;SDS011;68362;45.970;12.646;2023-04-24T01:31:45;6.38;;;4.72;;
78960;SDS011;68362;45.970;12.646;2023-04-24T01:32:48;6.85;;;5.38;;
78960;SDS011;68362;45.970;12.646;2023-04-24T01:33:50;5.38;;;4.50;;
78960;SDS011;68362;45.970;12.646;2023-04-24T01:34:53;6.53;;;4.07;;
78960;SDS011;68362;45.970;12.646;2023-04-24T01:35:56;6.38;;;5.30;;
78960;SDS011;68362;45.970;12.646;2023-04-24T01:36:59;6.68;;;4.95;;
78960;SDS011;68362;45.970;12.646;2023-04-24T01:38:02;6.68;;;4.68;;
78960;SDS011;68362;45.970;12.646;2023-04-24T01:39:04;6.68;;;5.07;;
78960;SDS011;68362;45.970;12.646;2023-04-24T01:40:07;5.32;;;4.65;;
78960;SDS011;68362;45.970;12.646;2023-04-24T01:42:12;5.78;;;3.80;;
78960;SDS011;68362;45.970;12.646;2023-04-24T01:43:14;9.43;;;4.60;;
78960;SDS011;68362;45.970;12.646;2023-04-24T01:44:16;5.88;;;3.97;;
78960;SDS011;68362;45.970;12.646;2023-04-24T01:45:19;8.38;;;4.50;;
78960;SDS011;68362;45.970;12.646;2023-04-24T01:46:21;5.05;;;4.25;;
78960;SDS011;68362;45.970;12.646;2023-04-24T01:47:23;7.13;;;4.25;;
78960;SDS011;68362;45.970;12.646;2023-04-24T01:48:25;6.43;;;4.20;;
78960;SDS011;68362;45.970;12.646;2023-04-24T01:49:28;7.55;;;4.85;;
78960;SDS011;68362;45.970;12.646;2023-04-24T01:50:31;5.30;;;3.75;;
78960;SDS011;68362;45.970;12.646;2023-04-24T01:51:33;6.22;;;3.90;;
78960;SDS011;68362;45.970;12.646;2023-04-24T01:52:35;4.95;;;3.70;;
78960;SDS011;68362;45.970;12.646;2023-04-24T01:54:39;5.15;;;4.05;;
78960;SDS011;68362;45.970;12.646;2023-04-24T01:55:41;6.50;;;4.45;;
78960;SDS011;68362;45.970;12.646;2023-04-24T01:56:43;6.80;;;4.50;;
78960;SDS011;68362;45.970;12.646;2023-04-24T01:57:46;5.32;;;4.35;;
78960;SDS011;68362;45.970;12.646;2023-04-24T01:58:49;6.15;;;4.50;;
78960;SDS011;68362;45.970;12.646;2023-04-24T01:59:53;6.50;;;4.72;;
78960;SDS011;68362;45.970;12.646;2023-04-24T02:00:56;4.10;;;3.58;;
78960;SDS011;68362;45.970;12.646;2023-04-24T02:02:00;6.50;;;4.32;;
78960;SDS011;68362;45.970;12.646;2023-04-24T02:03:02;4.78;;;3.83;;
78960;SDS011;68362;45.970;12.646;2023-04-24T02:04:05;5.93;;;4.30;;
78960;SDS011;68362;45.970;12.646;2023-04-24T02:05:09;6.97;;;4.80;;
78960;SDS011;68362;45.970;12.646;2023-04-24T02:06:12;4.90;;;3.95;;
78960;SDS011;68362;45.970;12.646;2023-04-24T02:07:14;6.28;;;4.20;;
78960;SDS011;68362;45.970;12.646;2023-04-24T02:08:16;7.20;;;4.95;;
78960;SDS011;68362;45.970;12.646;2023-04-24T02:09:18;5.50;;;4.63;;
78960;SDS011;68362;45.970;12.646;2023-04-24T02:10:21;5.38;;;4.28;;
78960;SDS011;68362;45.970;12.646;2023-04-24T02:11:23;7.25;;;5.32;;
78960;SDS011;68362;45.970;12.646;2023-04-24T02:12:25;7.70;;;4.88;;
78960;SDS011;68362;45.970;12.646;2023-04-24T02:13:27;6.38;;;4.90;;
78960;SDS011;68362;45.970;12.646;2023-04-24T02:14:30;7.22;;;4.75;;
78960;SDS011;68362;45.970;12.646;2023-04-24T02:15:32;5.85;;;4.57;;
78960;SDS011;68362;45.970;12.646;2023-04-24T02:16:34;5.75;;;4.63;;
78960;SDS011;68362;45.970;12.646;2023-04-24T02:17:37;5.53;;;3.90;;
78960;SDS011;68362;45.970;12.646;2023-04-24T02:18:40;6.35;;;5.47;;
78960;SDS011;68362;45.970;12.646;2023-04-24T02:19:42;7.65;;;4.40;;
78960;SDS011;68362;45.970;12.646;2023-04-24T02:20:44;8.77;;;5.07;;
78960;SDS011;68362;45.970;12.646;2023-04-24T02:21:46;5.07;;;4.22;;
78960;SDS011;68362;45.970;12.646;2023-04-24T02:22:49;5.22;;;4.00;;
78960;SDS011;68362;45.970;12.646;2023-04-24T02:23:51;6.07;;;4.88;;
78960;SDS011;68362;45.970;12.646;2023-04-24T02:24:53;6.40;;;4.75;;
78960;SDS011;68362;45.970;12.646;2023-04-24T02:25:54;6.43;;;5.15;;
78960;SDS011;68362;45.970;12.646;2023-04-24T02:26:57;7.60;;;4.63;;
78960;SDS011;68362;45.970;12.646;2023-04-24T02:27:59;7.22;;;5.30;;
78960;SDS011;68362;45.970;12.646;2023-04-24T02:29:01;8.43;;;5.90;;
78960;SDS011;68362;45.970;12.646;2023-04-24T02:30:04;7.88;;;5.65;;
78960;SDS011;68362;45.970;12.646;2023-04-24T02:31:06;6.97;;;5.10;;
78960;SDS011;68362;45.970;12.646;2023-04-24T02:32:08;8.52;;;5.57;;
78960;SDS011;68362;45.970;12.646;2023-04-24T02:33:13;7.47;;;5.40;;
78960;SDS011;68362;45.970;12.646;2023-04-24T02:34:15;8.07;;;5.43;;
78960;SDS011;68362;45.970;12.646;2023-04-24T02:35:18;7.28;;;5.47;;
78960;SDS011;68362;45.970;12.646;2023-04-24T02:36:20;7.10;;;5.88;;
78960;SDS011;68362;45.970;12.646;2023-04-24T02:37:22;6.97;;;6.07;;
78960;SDS011;68362;45.970;12.646;2023-04-24T02:38:24;7.28;;;5.95;;
78960;SDS011;68362;45.970;12.646;2023-04-24T02:39:26;7.32;;;5.85;;
78960;SDS011;68362;45.970;12.646;2023-04-24T02:40:29;7.97;;;6.30;;
78960;SDS011;68362;45.970;12.646;2023-04-24T02:41:31;6.45;;;5.07;;
78960;SDS011;68362;45.970;12.646;2023-04-24T02:42:34;9.25;;;5.65;;
78960;SDS011;68362;45.970;12.646;2023-04-24T02:43:36;8.02;;;5.80;;
78960;SDS011;68362;45.970;12.646;2023-04-24T02:44:38;7.07;;;5.40;;
78960;SDS011;68362;45.970;12.646;2023-04-24T02:45:40;9.00;;;5.25;;
78960;SDS011;68362;45.970;12.646;2023-04-24T02:46:42;6.85;;;5.53;;
78960;SDS011;68362;45.970;12.646;2023-04-24T02:47:45;6.38;;;5.32;;
78960;SDS011;68362;45.970;12.646;2023-04-24T02:48:47;7.25;;;5.47;;
78960;SDS011;68362;45.970;12.646;2023-04-24T02:49:49;8.25;;;5.32;;
78960;SDS011;68362;45.970;12.646;2023-04-24T02:50:51;6.00;;;5.05;;
78960;SDS011;68362;45.970;12.646;2023-04-24T02:51:53;5.72;;;4.60;;
78960;SDS011;68362;45.970;12.646;2023-04-24T02:52:55;6.32;;;5.47;;
78960;SDS011;68362;45.970;12.646;2023-04-24T02:53:57;6.78;;;5.22;;
78960;SDS011;68362;45.970;12.646;2023-04-24T02:54:59;6.70;;;5.15;;
78960;SDS011;68362;45.970;12.646;2023-04-24T02:56:01;9.10;;;5.95;;
78960;SDS011;68362;45.970;12.646;2023-04-24T02:57:03;8.55;;;5.90;;
78960;SDS011;68362;45.970;12.646;2023-04-24T02:58:06;7.03;;;5.03;;
78960;SDS011;68362;45.970;12.646;2023-04-24T02:59:08;8.85;;;5.10;;
78960;SDS011;68362;45.970;12.646;2023-04-24T03:00:10;7.50;;;5.32;;
78960;SDS011;68362;45.970;12.646;2023-04-24T03:01:13;6.47;;;4.85;;
78960;SDS011;68362;45.970;12.646;2023-04-24T03:02:15;6.43;;;5.57;;
78960;SDS011;68362;45.970;12.646;2023-04-24T03:03:17;6.80;;;4.93;;
78960;SDS011;68362;45.970;12.646;2023-04-24T03:04:20;7.57;;;5.18;;
78960;SDS011;68362;45.970;12.646;2023-04-24T03:05:22;7.55;;;5.13;;
78960;SDS011;68362;45.970;12.646;2023-04-24T03:06:24;9.38;;;5.70;;
78960;SDS011;68362;45.970;12.646;2023-04-24T03:07:26;8.98;;;5.72;;
78960;SDS011;68362;45.970;12.646;2023-04-24T03:08:28;6.53;;;5.00;;
78960;SDS011;68362;45.970;12.646;2023-04-24T03:09:30;6.28;;;5.35;;
78960;SDS011;68362;45.970;12.646;2023-04-24T03:10:32;6.70;;;5.32;;
78960;SDS011;68362;45.970;12.646;2023-04-24T03:11:34;6.25;;;4.70;;
78960;SDS011;68362;45.970;12.646;2023-04-24T03:12:36;5.68;;;4.82;;
78960;SDS011;68362;45.970;12.646;2023-04-24T03:13:38;7.43;;;5.28;;
78960;SDS011;68362;45.970;12.646;2023-04-24T03:14:40;7.53;;;5.90;;
78960;SDS011;68362;45.970;12.646;2023-04-24T03:15:42;7.95;;;5.38;;
78960;SDS011;68362;45.970;12.646;2023-04-24T03:16:45;7.28;;;6.05;;
78960;SDS011;68362;45.970;12.646;2023-04-24T03:17:47;5.78;;;4.63;;
78960;SDS011;68362;45.970;12.646;2023-04-24T03:18:49;6.63;;;5.00;;
78960;SDS011;68362;45.970;12.646;2023-04-24T03:19:51;8.00;;;5.10;;
78960;SDS011;68362;45.970;12.646;2023-04-24T03:20:53;8.18;;;6.22;;
78960;SDS011;68362;45.970;12.646;2023-04-24T03:21:55;7.43;;;5.40;;
78960;SDS011;68362;45.970;12.646;2023-04-24T03:22:57;7.22;;;4.80;;
78960;SDS011;68362;45.970;12.646;2023-04-24T03:23:59;8.18;;;6.03;;
78960;SDS011;68362;45.970;12.646;2023-04-24T03:25:02;7.13;;;5.00;;
78960;SDS011;68362;45.970;12.646;2023-04-24T03:26:04;8.27;;;6.05;;
78960;SDS011;68362;45.970;12.646;2023-04-24T03:27:06;8.10;;;5.65;;
78960;SDS011;68362;45.970;12.646;2023-04-24T03:28:08;6.18;;;5.15;;
78960;SDS011;68362;45.970;12.646;2023-04-24T03:29:10;8.15;;;5.95;;
78960;SDS011;68362;45.970;12.646;2023-04-24T03:30:12;7.05;;;5.10;;
78960;SDS011;68362;45.970;12.646;2023-04-24T03:31:14;8.00;;;5.13;;
78960;SDS011;68362;45.970;12.646;2023-04-24T03:32:17;6.15;;;5.10;;
78960;SDS011;68362;45.970;12.646;2023-04-24T03:33:19;6.75;;;5.03;;
78960;SDS011;68362;45.970;12.646;2023-04-24T03:34:21;7.38;;;4.97;;
78960;SDS011;68362;45.970;12.646;2023-04-24T03:35:23;7.78;;;5.60;;
78960;SDS011;68362;45.970;12.646;2023-04-24T03:36:25;7.40;;;5.28;;
78960;SDS011;68362;45.970;12.646;2023-04-24T03:37:28;7.80;;;4.97;;
78960;SDS011;68362;45.970;12.646;2023-04-24T03:38:29;10.68;;;5.25;;
78960;SDS011;68362;45.970;12.646;2023-04-24T03:39:32;9.30;;;5.93;;
78960;SDS011;68362;45.970;12.646;2023-04-24T03:40:33;8.63;;;4.95;;
78960;SDS011;68362;45.970;12.646;2023-04-24T03:41:36;7.82;;;4.97;;
78960;SDS011;68362;45.970;12.646;2023-04-24T03:42:38;6.93;;;5.15;;
78960;SDS011;68362;45.970;12.646;2023-04-24T03:43:40;7.30;;;4.93;;
78960;SDS011;68362;45.970;12.646;2023-04-24T03:44:42;8.80;;;5.85;;
78960;SDS011;68362;45.970;12.646;2023-04-24T03:45:45;7.32;;;4.93;;
78960;SDS011;68362;45.970;12.646;2023-04-24T03:46:47;9.00;;;5.63;;
78960;SDS011;68362;45.970;12.646;2023-04-24T03:47:49;7.38;;;5.47;;
78960;SDS011;68362;45.970;12.646;2023-04-24T03:48:51;6.78;;;5.35;;
78960;SDS011;68362;45.970;12.646;2023-04-24T03:49:53;6.00;;;5.13;;
78960;SDS011;68362;45.970;12.646;2023-04-24T03:50:57;6.40;;;4.97;;
78960;SDS011;68362;45.970;12.646;2023-04-24T03:51:59;6.72;;;5.15;;
78960;SDS011;68362;45.970;12.646;2023-04-24T03:53:01;6.07;;;4.85;;
78960;SDS011;68362;45.970;12.646;2023-04-24T03:54:03;6.40;;;4.95;;
78960;SDS011;68362;45.970;12.646;2023-04-24T03:55:05;6.93;;;5.25;;
78960;SDS011;68362;45.970;12.646;2023-04-24T03:56:08;7.45;;;5.20;;
78960;SDS011;68362;45.970;12.646;2023-04-24T03:57:10;7.70;;;5.80;;
78960;SDS011;68362;45.970;12.646;2023-04-24T03:58:12;8.05;;;5.03;;
78960;SDS011;68362;45.970;12.646;2023-04-24T03:59:15;7.43;;;5.38;;
78960;SDS011;68362;45.970;12.646;2023-04-24T04:00:17;7.38;;;5.00;;
78960;SDS011;68362;45.970;12.646;2023-04-24T04:01:20;7.03;;;4.82;;
78960;SDS011;68362;45.970;12.646;2023-04-24T04:02:22;8.95;;;5.60;;
78960;SDS011;68362;45.970;12.646;2023-04-24T04:03:24;10.57;;;5.70;;
78960;SDS011;68362;45.970;12.646;2023-04-24T04:04:27;7.03;;;5.22;;
78960;SDS011;68362;45.970;12.646;2023-04-24T04:05:29;7.65;;;5.13;;
78960;SDS011;68362;45.970;12.646;2023-04-24T04:06:32;5.93;;;5.18;;
78960;SDS011;68362;45.970;12.646;2023-04-24T04:07:34;5.75;;;4.93;;
78960;SDS011;68362;45.970;12.646;2023-04-24T04:08:36;6.22;;;4.93;;
78960;SDS011;68362;45.970;12.646;2023-04-24T04:09:38;6.50;;;5.32;;
78960;SDS011;68362;45.970;12.646;2023-04-24T04:10:43;5.97;;;5.30;;
78960;SDS011;68362;45.970;12.646;2023-04-24T04:11:45;6.72;;;4.63;;
78960;SDS011;68362;45.970;12.646;2023-04-24T04:12:47;6.60;;;5.20;;
78960;SDS011;68362;45.970;12.646;2023-04-24T04:13:49;9.63;;;5.28;;
78960;SDS011;68362;45.970;12.646;2023-04-24T04:14:52;5.78;;;4.78;;
78960;SDS011;68362;45.970;12.646;2023-04-24T04:15:54;6.00;;;4.88;;
78960;SDS011;68362;45.970;12.646;2023-04-24T04:16:56;9.85;;;5.13;;
78960;SDS011;68362;45.970;12.646;2023-04-24T04:17:58;8.65;;;4.72;;
78960;SDS011;68362;45.970;12.646;2023-04-24T04:19:00;6.43;;;4.82;;
78960;SDS011;68362;45.970;12.646;2023-04-24T04:20:04;9.18;;;5.05;;
78960;SDS011;68362;45.970;12.646;2023-04-24T04:21:11;10.35;;;5.47;;
78960;SDS011;68362;45.970;12.646;2023-04-24T04:22:13;9.48;;;5.43;;
78960;SDS011;68362;45.970;12.646;2023-04-24T04:23:15;7.15;;;5.20;;
78960;SDS011;68362;45.970;12.646;2023-04-24T04:24:17;5.80;;;4.57;;
78960;SDS011;68362;45.970;12.646;2023-04-24T04:25:19;9.48;;;4.93;;
78960;SDS011;68362;45.970;12.646;2023-04-24T04:26:21;9.15;;;5.85;;
78960;SDS011;68362;45.970;12.646;2023-04-24T04:27:27;7.13;;;5.22;;
78960;SDS011;68362;45.970;12.646;2023-04-24T04:28:30;6.97;;;4.53;;
78960;SDS011;68362;45.970;12.646;2023-04-24T04:29:33;7.90;;;5.50;;
78960;SDS011;68362;45.970;12.646;2023-04-24T04:30:36;6.10;;;5.20;;
78960;SDS011;68362;45.970;12.646;2023-04-24T04:31:40;9.40;;;5.03;;
78960;SDS011;68362;45.970;12.646;2023-04-24T04:32:42;6.72;;;4.63;;
78960;SDS011;68362;45.970;12.646;2023-04-24T04:33:44;7.85;;;4.93;;
78960;SDS011;68362;45.970;12.646;2023-04-24T04:34:46;5.32;;;4.45;;
78960;SDS011;68362;45.970;12.646;2023-04-24T04:35:51;7.65;;;4.18;;
78960;SDS011;68362;45.970;12.646;2023-04-24T04:36:53;6.18;;;4.25;;
78960;SDS011;68362;45.970;12.646;2023-04-24T04:37:55;6.80;;;5.00;;
78960;SDS011;68362;45.970;12.646;2023-04-24T04:39:00;6.32;;;4.50;;
78960;SDS011;68362;45.970;12.646;2023-04-24T04:40:03;6.07;;;5.05;;
78960;SDS011;68362;45.970;12.646;2023-04-24T04:41:08;5.78;;;4.60;;
78960;SDS011;68362;45.970;12.646;2023-04-24T04:42:10;4.93;;;4.38;;
78960;SDS011;68362;45.970;12.646;2023-04-24T04:43:12;9.02;;;5.45;;
78960;SDS011;68362;45.970;12.646;2023-04-24T04:44:17;7.07;;;4.20;;
78960;SDS011;68362;45.970;12.646;2023-04-24T04:45:19;7.28;;;4.57;;
78960;SDS011;68362;45.970;12.646;2023-04-24T04:46:22;8.77;;;5.32;;
78960;SDS011;68362;45.970;12.646;2023-04-24T04:47:27;6.03;;;4.80;;
78960;SDS011;68362;45.970;12.646;2023-04-24T04:49:33;5.15;;;4.40;;
78960;SDS011;68362;45.970;12.646;2023-04-24T04:50:35;8.15;;;4.50;;
78960;SDS011;68362;45.970;12.646;2023-04-24T04:51:37;9.50;;;5.03;;
78960;SDS011;68362;45.970;12.646;2023-04-24T04:52:43;7.65;;;5.38;;
78960;SDS011;68362;45.970;12.646;2023-04-24T04:53:45;5.80;;;4.65;;
78960;SDS011;68362;45.970;12.646;2023-04-24T04:54:47;7.07;;;5.15;;
78960;SDS011;68362;45.970;12.646;2023-04-24T04:55:49;6.22;;;5.30;;
78960;SDS011;68362;45.970;12.646;2023-04-24T04:56:51;5.30;;;4.18;;
78960;SDS011;68362;45.970;12.646;2023-04-24T04:57:53;6.20;;;5.10;;
78960;SDS011;68362;45.970;12.646;2023-04-24T04:58:57;6.78;;;4.57;;
78960;SDS011;68362;45.970;12.646;2023-04-24T05:00:00;7.78;;;4.47;;
78960;SDS011;68362;45.970;12.646;2023-04-24T05:01:03;6.43;;;4.60;;
78960;SDS011;68362;45.970;12.646;2023-04-24T05:02:05;6.15;;;4.50;;
78960;SDS011;68362;45.970;12.646;2023-04-24T05:03:07;7.25;;;4.88;;
78960;SDS011;68362;45.970;12.646;2023-04-24T05:04:20;5.93;;;4.68;;
78960;SDS011;68362;45.970;12.646;2023-04-24T05:05:23;6.47;;;5.05;;
78960;SDS011;68362;45.970;12.646;2023-04-24T05:06:25;7.70;;;4.40;;
78960;SDS011;68362;45.970;12.646;2023-04-24T05:07:27;8.70;;;4.93;;
78960;SDS011;68362;45.970;12.646;2023-04-24T05:08:29;6.18;;;4.45;;
78960;SDS011;68362;45.970;12.646;2023-04-24T05:09:31;8.55;;;4.68;;
78960;SDS011;68362;45.970;12.646;2023-04-24T05:10:33;6.00;;;4.70;;
78960;SDS011;68362;45.970;12.646;2023-04-24T05:11:36;6.32;;;4.80;;
78960;SDS011;68362;45.970;12.646;2023-04-24T05:12:38;10.50;;;6.43;;
78960;SDS011;68362;45.970;12.646;2023-04-24T05:13:40;5.47;;;4.35;;
78960;SDS011;68362;45.970;12.646;2023-04-24T05:14:42;6.13;;;4.22;;
78960;SDS011;68362;45.970;12.646;2023-04-24T05:15:44;7.43;;;5.22;;
78960;SDS011;68362;45.970;12.646;2023-04-24T05:16:46;8.15;;;5.35;;
78960;SDS011;68362;45.970;12.646;2023-04-24T05:17:49;7.35;;;4.32;;
78960;SDS011;68362;45.970;12.646;2023-04-24T05:18:51;7.57;;;4.45;;
78960;SDS011;68362;45.970;12.646;2023-04-24T05:19:53;7.35;;;4.68;;
78960;SDS011;68362;45.970;12.646;2023-04-24T05:20:55;8.40;;;4.72;;
78960;SDS011;68362;45.970;12.646;2023-04-24T05:21:57;9.40;;;4.75;;
78960;SDS011;68362;45.970;12.646;2023-04-24T05:22:59;6.00;;;4.60;;
78960;SDS011;68362;45.970;12.646;2023-04-24T05:24:02;7.35;;;4.47;;
78960;SDS011;68362;45.970;12.646;2023-04-24T05:25:04;10.02;;;4.82;;
78960;SDS011;68362;45.970;12.646;2023-04-24T05:26:07;7.65;;;5.13;;
78960;SDS011;68362;45.970;12.646;2023-04-24T05:27:09;7.70;;;5.05;;
78960;SDS011;68362;45.970;12.646;2023-04-24T05:28:11;8.07;;;4.78;;
78960;SDS011;68362;45.970;12.646;2023-04-24T05:29:13;6.95;;;4.43;;
78960;SDS011;68362;45.970;12.646;2023-04-24T05:30:15;6.65;;;4.22;;
78960;SDS011;68362;45.970;12.646;2023-04-24T05:31:17;5.97;;;4.78;;
78960;SDS011;68362;45.970;12.646;2023-04-24T05:32:19;7.63;;;5.05;;
78960;SDS011;68362;45.970;12.646;2023-04-24T05:33:21;9.02;;;4.88;;
78960;SDS011;68362;45.970;12.646;2023-04-24T05:34:24;6.18;;;4.70;;
78960;SDS011;68362;45.970;12.646;2023-04-24T05:35:26;7.38;;;4.78;;
78960;SDS011;68362;45.970;12.646;2023-04-24T05:36:28;6.05;;;4.88;;
78960;SDS011;68362;45.970;12.646;2023-04-24T05:37:30;9.15;;;5.22;;
78960;SDS011;68362;45.970;12.646;2023-04-24T05:38:32;7.72;;;5.20;;
78960;SDS011;68362;45.970;12.646;2023-04-24T05:39:35;10.05;;;5.05;;
78960;SDS011;68362;45.970;12.646;2023-04-24T05:40:37;9.98;;;5.18;;
78960;SDS011;68362;45.970;12.646;2023-04-24T05:41:39;7.75;;;4.47;;
78960;SDS011;68362;45.970;12.646;2023-04-24T05:42:41;5.68;;;4.45;;
78960;SDS011;68362;45.970;12.646;2023-04-24T05:43:43;10.27;;;5.13;;
78960;SDS011;68362;45.970;12.646;2023-04-24T05:44:45;10.60;;;4.70;;
78960;SDS011;68362;45.970;12.646;2023-04-24T05:45:47;8.23;;;5.82;;
78960;SDS011;68362;45.970;12.646;2023-04-24T05:46:49;6.05;;;4.93;;
78960;SDS011;68362;45.970;12.646;2023-04-24T05:47:52;6.57;;;4.65;;
78960;SDS011;68362;45.970;12.646;2023-04-24T05:48:54;10.88;;;4.90;;
78960;SDS011;68362;45.970;12.646;2023-04-24T05:49:56;8.05;;;5.25;;
78960;SDS011;68362;45.970;12.646;2023-04-24T05:50:58;5.70;;;4.90;;
78960;SDS011;68362;45.970;12.646;2023-04-24T05:52:01;9.77;;;5.40;;
78960;SDS011;68362;45.970;12.646;2023-04-24T05:53:04;7.18;;;5.82;;
78960;SDS011;68362;45.970;12.646;2023-04-24T05:54:08;6.97;;;5.35;;
78960;SDS011;68362;45.970;12.646;2023-04-24T05:55:11;7.25;;;4.82;;
78960;SDS011;68362;45.970;12.646;2023-04-24T05:56:13;9.18;;;6.05;;
78960;SDS011;68362;45.970;12.646;2023-04-24T05:57:15;8.68;;;6.32;;
78960;SDS011;68362;45.970;12.646;2023-04-24T05:58:17;8.43;;;5.25;;
78960;SDS011;68362;45.970;12.646;2023-04-24T05:59:19;10.10;;;5.32;;
78960;SDS011;68362;45.970;12.646;2023-04-24T06:00:21;7.50;;;5.13;;
78960;SDS011;68362;45.970;12.646;2023-04-24T06:01:23;8.77;;;5.32;;
78960;SDS011;68362;45.970;12.646;2023-04-24T06:02:26;6.45;;;4.70;;
78960;SDS011;68362;45.970;12.646;2023-04-24T06:03:29;10.05;;;5.88;;
78960;SDS011;68362;45.970;12.646;2023-04-24T06:04:32;7.88;;;5.18;;
78960;SDS011;68362;45.970;12.646;2023-04-24T06:05:34;7.50;;;5.30;;
78960;SDS011;68362;45.970;12.646;2023-04-24T06:06:36;6.40;;;4.97;;
78960;SDS011;68362;45.970;12.646;2023-04-24T06:07:39;9.45;;;6.60;;
78960;SDS011;68362;45.970;12.646;2023-04-24T06:08:41;6.60;;;5.03;;
78960;SDS011;68362;45.970;12.646;2023-04-24T06:09:45;10.15;;;5.25;;
78960;SDS011;68362;45.970;12.646;2023-04-24T06:10:47;12.88;;;5.22;;
78960;SDS011;68362;45.970;12.646;2023-04-24T06:11:50;7.22;;;5.60;;
78960;SDS011;68362;45.970;12.646;2023-04-24T06:12:55;7.47;;;5.20;;
78960;SDS011;68362;45.970;12.646;2023-04-24T06:14:02;6.72;;;4.72;;
78960;SDS011;68362;45.970;12.646;2023-04-24T06:15:04;8.27;;;5.20;;
78960;SDS011;68362;45.970;12.646;2023-04-24T06:17:08;7.53;;;4.72;;
78960;SDS011;68362;45.970;12.646;2023-04-24T06:18:11;9.30;;;5.40;;
78960;SDS011;68362;45.970;12.646;2023-04-24T06:19:14;7.47;;;5.15;;